createdAt,value
2019-05-23T10:53:32.228Z,24.77
2019-05-23T10:56:08.679Z,29.17
2019-05-23T10:58:46.783Z,29.07
2019-05-23T11:01:22.085Z,21.10
2019-05-23T11:03:58.358Z,27.63
2019-05-23T11:06:34.928Z,34.77
2019-05-23T11:09:12.096Z,29.77
2019-05-23T11:11:48.188Z,32.20
2019-05-23T11:14:24.302Z,35.37
2019-05-23T11:17:00.398Z,25.83
2019-05-23T11:19:36.991Z,28.43
2019-05-23T11:22:13.392Z,21.43
2019-05-23T11:24:49.774Z,26.90
2019-05-23T11:27:26.207Z,21.63
2019-05-23T11:30:04.831Z,31.13
2019-05-23T11:32:44.280Z,22.30
2019-05-23T11:35:21.852Z,29.23
2019-05-23T11:37:57.440Z,29.47
2019-05-23T11:40:33.866Z,24.07
2019-05-23T11:43:09.938Z,22.20
2019-05-23T11:45:46.720Z,24.57
2019-05-23T11:48:23.604Z,21.50
2019-05-23T11:50:59.549Z,18.77
2019-05-23T11:53:35.140Z,17.83
2019-05-23T11:56:12.359Z,21.27
2019-05-23T11:58:48.623Z,19.87
2019-05-23T12:01:25.647Z,17.10
2019-05-23T12:04:02.845Z,13.73
2019-05-23T12:06:55.278Z,20.00
2019-05-23T12:09:27.211Z,17.57
2019-05-23T12:12:02.433Z,18.73
2019-05-23T12:14:38.174Z,25.37
2019-05-23T12:20:59.035Z,17.17
2019-05-23T12:23:35.234Z,17.87
2019-05-23T12:26:11.487Z,18.37
2019-05-23T12:28:47.029Z,23.40
2019-05-23T12:31:23.064Z,20.03
2019-05-23T12:33:58.011Z,24.57
2019-05-23T12:36:34.146Z,18.53
2019-05-23T12:39:10.603Z,33.17
2019-05-23T12:41:45.867Z,18.00
2019-05-23T12:44:20.795Z,17.63
2019-05-23T12:46:55.971Z,22.60
2019-05-23T12:49:39.169Z,27.03
2019-05-23T12:52:15.393Z,15.83
2019-05-23T12:54:50.867Z,20.33
2019-05-23T12:57:26.073Z,23.73
2019-05-23T13:00:01.126Z,20.77
2019-05-23T13:02:36.994Z,19.00
2019-05-23T13:05:12.614Z,20.67
2019-05-23T13:07:48.262Z,15.80
2019-05-23T13:10:24.720Z,21.57
2019-05-23T13:12:59.981Z,16.43
2019-05-23T13:15:36.322Z,14.33
2019-05-23T13:18:11.589Z,18.53
2019-05-23T13:20:47.439Z,17.90
2019-05-23T13:23:23.009Z,17.53
2019-05-23T13:25:57.982Z,19.63
2019-05-23T13:28:33.520Z,12.83
2019-05-23T13:31:08.984Z,13.43
2019-05-23T13:33:44.289Z,14.93
2019-05-23T13:36:19.535Z,15.23
2019-05-23T13:38:54.627Z,15.30
2019-05-23T13:41:29.750Z,20.17
2019-05-23T13:44:05.159Z,14.33
2019-05-23T13:46:40.434Z,17.40
2019-05-23T13:49:16.458Z,19.17
2019-05-23T13:51:51.757Z,21.50
2019-05-23T13:54:29.169Z,14.30
2019-05-23T13:57:04.399Z,13.83
2019-05-23T13:59:39.888Z,24.70
2019-05-23T14:02:16.571Z,18.20
2019-05-23T14:04:53.059Z,19.93
2019-05-23T14:07:28.650Z,15.77
2019-05-23T14:10:04.383Z,19.80
2019-05-23T14:12:39.907Z,15.07
2019-05-23T14:15:16.586Z,16.97
2019-05-23T14:17:51.578Z,12.90
2019-05-23T14:20:27.232Z,13.10
2019-05-23T14:23:06.155Z,13.13
2019-05-23T14:26:02.553Z,18.13
2019-05-23T14:28:50.836Z,15.50
2019-05-23T14:31:26.506Z,18.67
2019-05-23T14:34:02.889Z,19.97
2019-05-23T14:36:48.499Z,19.40
2019-05-23T14:39:30.610Z,19.47
2019-05-23T14:42:10.835Z,13.77
2019-05-23T14:44:45.919Z,14.63
2019-05-23T14:47:22.136Z,15.50
2019-05-23T14:50:15.704Z,18.23
2019-05-23T14:52:52.004Z,22.77
2019-05-23T14:55:27.428Z,13.53
2019-05-23T14:58:03.826Z,19.47
2019-05-23T15:00:39.260Z,18.03
2019-05-23T15:03:14.640Z,23.57
2019-05-23T15:05:49.921Z,20.70
2019-05-23T15:08:25.450Z,15.87
2019-05-23T15:11:00.800Z,14.63
2019-05-23T15:13:36.219Z,23.20
2019-05-23T15:16:11.250Z,17.03
2019-05-23T15:18:46.997Z,14.50
2019-05-23T15:21:21.905Z,14.07
2019-05-23T15:23:57.374Z,14.37
2019-05-23T15:26:33.292Z,19.50
2019-05-23T15:29:09.419Z,17.73
2019-05-23T15:31:59.158Z,15.60
2019-05-23T15:34:20.425Z,14.93
2019-05-23T15:36:55.290Z,17.23
2019-05-23T15:39:30.916Z,16.63
2019-05-23T15:42:05.874Z,19.40
2019-05-23T15:44:41.508Z,19.10
2019-05-23T15:47:16.943Z,18.30
2019-05-23T15:49:53.825Z,16.67
2019-05-23T15:52:58.666Z,18.57
2019-05-23T15:55:47.719Z,19.97
2019-05-23T15:58:35.812Z,15.13
2019-05-23T16:01:15.913Z,25.13
2019-05-23T16:03:53.206Z,20.43
2019-05-23T16:06:29.749Z,16.93
2019-05-23T16:09:04.931Z,19.50
2019-05-23T16:11:40.006Z,16.00
2019-05-23T16:14:15.407Z,14.97
2019-05-23T16:16:55.430Z,18.57
2019-05-23T16:19:27.421Z,24.13
2019-05-23T16:22:02.792Z,16.80
2019-05-23T16:24:38.816Z,19.83
2019-05-23T16:27:14.248Z,16.83
2019-05-23T16:29:49.246Z,17.23
2019-05-23T16:32:24.668Z,20.73
2019-05-23T16:34:59.700Z,14.33
2019-05-23T16:37:34.941Z,19.27
2019-05-23T16:40:12.944Z,16.07
2019-05-23T16:42:48.872Z,16.43
2019-05-23T16:45:23.751Z,21.30
2019-05-23T16:47:59.887Z,18.73
2019-05-23T16:50:34.452Z,20.77
2019-05-23T16:53:09.314Z,20.87
2019-05-23T16:56:00.153Z,18.83
2019-05-23T16:58:41.824Z,19.07
2019-05-23T17:01:24.810Z,19.13
2019-05-23T17:04:03.471Z,19.37
2019-05-23T17:06:56.014Z,18.77
2019-05-23T17:09:45.197Z,15.47
2019-05-23T17:12:40.031Z,14.23
2019-05-23T17:15:35.069Z,24.67
2019-05-23T17:18:16.751Z,20.47
2019-05-23T17:20:52.945Z,19.87
2019-05-23T17:23:44.553Z,15.60
2019-05-23T17:26:21.077Z,18.40
2019-05-23T17:29:02.998Z,19.93
2019-05-23T17:31:39.210Z,15.63
2019-05-23T17:34:15.166Z,22.73
2019-05-23T17:36:50.111Z,18.23
2019-05-23T17:39:25.169Z,19.17
2019-05-23T17:41:59.969Z,15.73
2019-05-23T17:44:35.019Z,18.13
2019-05-23T17:47:10.334Z,22.33
2019-05-23T17:49:46.912Z,22.43
2019-05-23T17:52:23.584Z,21.43
2019-05-23T17:55:03.287Z,20.03
2019-05-23T17:57:42.740Z,19.70
2019-05-23T18:00:20.623Z,18.87
2019-05-23T18:02:56.603Z,21.43
2019-05-23T18:05:31.996Z,27.17
2019-05-23T18:08:08.456Z,20.57
2019-05-23T18:11:12.733Z,21.33
2019-05-23T18:13:49.651Z,24.33
2019-05-23T18:16:25.209Z,17.17
2019-05-23T18:19:01.044Z,22.20
2019-05-23T18:21:36.180Z,19.70
2019-05-23T18:24:12.967Z,22.70
2019-05-23T18:26:48.023Z,18.30
2019-05-23T18:29:23.310Z,20.57
2019-05-23T18:31:58.486Z,22.73
2019-05-23T18:34:34.297Z,23.30
2019-05-23T18:37:09.605Z,22.77
2019-05-23T18:39:47.096Z,18.70
2019-05-23T18:42:22.631Z,25.63
2019-05-23T18:44:57.958Z,20.87
2019-05-23T18:47:40.687Z,20.33
2019-05-23T18:50:17.206Z,20.50
2019-05-23T18:52:52.509Z,34.37
2019-05-23T18:55:29.299Z,26.43
2019-05-23T18:58:05.805Z,23.83
2019-05-23T19:00:58.687Z,18.77
2019-05-23T19:03:35.669Z,21.67
2019-05-23T19:06:11.239Z,23.77
2019-05-23T19:08:46.272Z,20.13
2019-05-23T19:11:22.016Z,22.60
2019-05-23T19:13:56.983Z,22.60
2019-05-23T19:16:32.542Z,25.93
2019-05-23T19:19:07.995Z,22.13
2019-05-23T19:21:43.535Z,21.97
2019-05-23T19:24:18.416Z,29.47
2019-05-23T19:26:54.168Z,29.40
2019-05-23T19:29:30.123Z,28.03
2019-05-23T19:32:06.685Z,28.47
2019-05-23T19:34:42.162Z,26.73
2019-05-23T19:37:17.575Z,29.50
2019-05-23T19:39:52.915Z,29.80
2019-05-23T19:42:28.048Z,30.20
2019-05-23T19:45:02.959Z,30.67
2019-05-23T19:47:38.114Z,30.00
2019-05-23T19:50:12.928Z,27.33
2019-05-23T19:52:48.114Z,35.17
2019-05-23T19:55:23.172Z,40.90
2019-05-23T19:57:58.748Z,29.03
2019-05-23T20:00:34.751Z,36.27
2019-05-23T20:03:10.401Z,31.47
2019-05-23T20:05:46.668Z,31.23
2019-05-23T20:08:22.058Z,37.10
2019-05-23T20:10:57.298Z,34.37
2019-05-23T20:13:33.524Z,35.97
2019-05-23T20:16:09.013Z,40.27
2019-05-23T20:18:44.310Z,37.97
2019-05-23T20:21:20.247Z,35.93
2019-05-23T20:23:55.718Z,39.30
2019-05-23T20:26:31.054Z,35.83
2019-05-23T20:29:06.825Z,43.40
2019-05-23T20:31:41.678Z,46.17
2019-05-23T20:34:16.899Z,34.03
2019-05-23T20:36:51.614Z,39.53
2019-05-23T20:39:27.378Z,45.80
2019-05-23T20:42:11.264Z,40.90
2019-05-23T20:44:41.787Z,49.70
2019-05-23T20:47:16.809Z,44.00
2019-05-23T20:49:52.576Z,47.20
2019-05-23T20:52:49.109Z,41.03
2019-05-23T20:55:24.339Z,44.40
2019-05-23T20:57:59.353Z,44.87
2019-05-23T21:00:37.376Z,51.03
2019-05-23T21:03:12.393Z,50.20
2019-05-23T21:06:00.947Z,52.47
2019-05-23T21:08:36.687Z,47.97
2019-05-23T21:11:11.989Z,50.83
2019-05-23T21:13:48.019Z,58.10
2019-05-23T21:16:23.429Z,53.07
2019-05-23T21:18:58.356Z,59.07
2019-05-23T21:21:34.380Z,60.23
2019-05-23T21:24:09.877Z,62.93
2019-05-23T21:26:45.608Z,65.20
2019-05-23T21:29:20.704Z,60.63
2019-05-23T21:31:56.359Z,54.53
2019-05-23T21:34:32.284Z,62.43
2019-05-23T21:37:07.979Z,55.73
2019-05-23T21:39:50.441Z,55.50
2019-05-23T21:42:26.663Z,55.20
2019-05-23T21:45:01.942Z,57.20
2019-05-23T21:47:38.661Z,64.90
2019-05-23T21:50:14.205Z,52.07
2019-05-23T21:52:49.393Z,52.80
2019-05-23T21:55:46.387Z,56.20
2019-05-23T21:58:22.194Z,54.20
2019-05-23T22:01:02.461Z,54.33
2019-05-23T22:03:55.827Z,53.63
2019-05-23T22:06:32.815Z,59.70
2019-05-23T22:09:09.787Z,59.50
2019-05-23T22:11:45.013Z,60.07
2019-05-23T22:14:20.674Z,57.97
2019-05-23T22:16:55.758Z,60.07
2019-05-23T22:19:31.959Z,63.50
2019-05-23T22:22:07.560Z,63.07
2019-05-23T22:25:02.149Z,67.67
2019-05-23T22:27:37.109Z,56.57
2019-05-23T22:30:12.236Z,61.10
2019-05-23T22:32:48.598Z,58.47
2019-05-23T22:35:24.988Z,58.80
2019-05-23T22:38:12.251Z,59.20
2019-05-23T22:40:47.708Z,55.70
2019-05-23T22:43:22.769Z,63.33
2019-05-23T22:45:58.069Z,60.70
2019-05-23T22:48:33.070Z,55.63
2019-05-23T22:51:08.138Z,51.80
2019-05-23T22:53:43.215Z,56.10
2019-05-23T22:56:18.725Z,53.57
2019-05-23T22:58:54.382Z,50.03
2019-05-23T23:01:31.156Z,48.63
2019-05-23T23:04:14.287Z,52.20
2019-05-23T23:06:50.969Z,65.67
2019-05-23T23:09:26.452Z,52.10
2019-05-23T23:12:03.497Z,51.73
2019-05-23T23:14:38.797Z,53.03
2019-05-23T23:17:14.925Z,53.23
2019-05-23T23:19:57.402Z,61.97
2019-05-23T23:22:33.978Z,63.00
2019-05-23T23:25:15.272Z,58.40
2019-05-23T23:34:03.837Z,61.73
2019-05-23T23:36:47.093Z,52.00
2019-05-23T23:39:23.983Z,53.70
2019-05-23T23:49:07.959Z,54.23
2019-05-23T23:58:15.227Z,64.73
